createdAt,value
2023-04-10T00:01:22.358Z,24.50
2023-04-10T00:03:50.888Z,24.73
2023-04-10T00:06:19.230Z,29.67
2023-04-10T00:08:47.605Z,24.85
2023-04-10T00:11:15.737Z,29.30
2023-04-10T00:13:44.178Z,25.55
2023-04-10T00:16:13.679Z,27.15
2023-04-10T00:18:42.071Z,27.20
2023-04-10T00:21:10.162Z,24.67
2023-04-10T00:23:38.595Z,26.10
2023-04-10T00:26:07.625Z,25.85
2023-04-10T00:28:38.334Z,29.92
2023-04-10T00:31:07.116Z,26.25
2023-04-10T00:33:36.563Z,28.33
2023-04-10T00:36:04.897Z,25.33
2023-04-10T00:38:33.057Z,25.33
2023-04-10T00:41:01.180Z,26.70
2023-04-10T00:43:29.290Z,27.63
2023-04-10T00:45:57.489Z,27.23
2023-04-10T00:48:25.738Z,27.08
2023-04-10T00:50:55.607Z,27.15
2023-04-10T00:53:23.777Z,25.75
2023-04-10T00:55:52.074Z,29.98
2023-04-10T00:58:20.426Z,27.60
2023-04-10T01:00:49.166Z,28.13
2023-04-10T01:03:21.153Z,28.92
2023-04-10T01:06:07.808Z,28.70
2023-04-10T01:08:47.253Z,28.58
2023-04-10T01:11:23.106Z,29.17
2023-04-10T01:13:59.947Z,27.05
2023-04-10T01:16:32.734Z,27.02
2023-04-10T01:19:11.896Z,30.17
2023-04-10T01:21:43.103Z,28.55
2023-04-10T01:24:29.625Z,26.75
2023-04-10T01:27:13.104Z,26.35
2023-04-10T01:29:47.564Z,27.05
2023-04-10T01:32:18.850Z,32.53
2023-04-10T01:34:50.674Z,27.77
2023-04-10T01:37:21.845Z,27.60
2023-04-10T01:39:55.878Z,28.92
2023-04-10T01:42:25.738Z,28.10
2023-04-10T01:44:55.818Z,28.50
2023-04-10T01:47:26.473Z,27.27
2023-04-10T01:49:55.992Z,30.30
2023-04-10T01:52:25.983Z,28.65
2023-04-10T01:54:55.158Z,32.63
2023-04-10T01:57:24.126Z,25.33
2023-04-10T01:59:53.880Z,25.38
2023-04-10T02:02:22.629Z,28.45
2023-04-10T02:04:52.027Z,26.48
2023-04-10T02:07:26.529Z,25.95
2023-04-10T02:10:01.396Z,25.95
2023-04-10T02:12:32.068Z,28.70
2023-04-10T02:15:05.487Z,25.60
2023-04-10T02:17:35.820Z,26.88
2023-04-10T02:20:06.224Z,23.25
2023-04-10T02:22:34.881Z,26.40
2023-04-10T02:25:06.880Z,26.52
2023-04-10T02:27:36.484Z,30.60
2023-04-10T02:30:07.704Z,27.40
2023-04-10T02:32:36.937Z,26.40
2023-04-10T02:35:06.182Z,30.40
2023-04-10T02:37:34.798Z,27.75
2023-04-10T02:40:03.172Z,25.88
2023-04-10T02:42:31.251Z,27.65
2023-04-10T02:44:59.680Z,30.75
2023-04-10T02:47:29.149Z,26.25
2023-04-10T02:49:57.567Z,25.77
2023-04-10T02:52:25.708Z,27.38
2023-04-10T02:54:53.844Z,23.80
2023-04-10T02:57:23.039Z,26.95
2023-04-10T02:59:52.077Z,24.35
2023-04-10T03:02:20.685Z,32.08
2023-04-10T03:04:50.282Z,24.63
2023-04-10T03:07:18.669Z,24.17
2023-04-10T03:09:46.758Z,24.52
2023-04-10T03:12:14.879Z,28.92
2023-04-10T03:14:43.355Z,21.20
2023-04-10T03:17:12.291Z,20.98
2023-04-10T03:19:40.356Z,22.40
2023-04-10T03:22:11.111Z,21.92
2023-04-10T03:24:40.024Z,17.02
2023-04-10T03:27:08.456Z,21.73
2023-04-10T03:29:36.581Z,20.77
2023-04-10T03:32:04.818Z,20.48
2023-04-10T03:34:32.973Z,24.10
2023-04-10T03:37:01.035Z,21.65
2023-04-10T03:39:30.505Z,21.88
2023-04-10T03:41:58.566Z,24.92
2023-04-10T03:44:27.623Z,21.98
2023-04-10T03:46:55.726Z,22.27
2023-04-10T03:49:24.168Z,24.77
2023-04-10T03:51:52.217Z,20.60
2023-04-10T03:54:20.793Z,21.75
2023-04-10T03:56:50.567Z,21.77
2023-04-10T03:59:18.643Z,17.40
2023-04-10T04:01:47.085Z,14.98
2023-04-10T04:04:15.517Z,16.50
2023-04-10T04:06:44.006Z,21.27
2023-04-10T04:09:13.097Z,16.58
2023-04-10T04:11:41.508Z,20.95
2023-04-10T04:14:11.201Z,19.90
2023-04-10T04:16:39.779Z,26.60
2023-04-10T04:19:08.068Z,26.25
2023-04-10T04:21:36.163Z,20.42
2023-04-10T04:24:04.328Z,24.50
2023-04-10T04:26:32.628Z,27.83
2023-04-10T04:29:00.692Z,23.20
2023-04-10T04:31:32.934Z,22.50
2023-04-10T04:34:01.071Z,24.27
2023-04-10T04:36:29.250Z,22.88
2023-04-10T04:38:57.342Z,20.83
2023-04-10T04:41:25.603Z,24.30
2023-04-10T04:43:55.869Z,21.17
2023-04-10T04:46:24.201Z,24.60
2023-04-10T04:48:54.174Z,24.52
2023-04-10T04:51:22.363Z,22.55
2023-04-10T04:53:50.900Z,23.70
2023-04-10T04:56:19.060Z,25.45
2023-04-10T04:58:47.188Z,30.08
2023-04-10T05:01:16.043Z,35.20
2023-04-10T05:03:44.228Z,33.75
2023-04-10T05:06:14.775Z,28.27
2023-04-10T05:08:43.179Z,26.25
2023-04-10T05:11:11.342Z,28.90
2023-04-10T05:13:39.753Z,27.40
2023-04-10T05:16:08.953Z,27.30
2023-04-10T05:18:37.530Z,30.50
2023-04-10T05:21:06.344Z,29.60
2023-04-10T05:23:36.232Z,32.97
2023-04-10T05:26:04.353Z,33.67
2023-04-10T05:28:32.441Z,29.33
2023-04-10T05:31:01.120Z,29.77
2023-04-10T05:33:29.274Z,32.35
2023-04-10T05:35:57.466Z,32.70
2023-04-10T05:38:25.979Z,33.50
2023-04-10T05:40:56.003Z,36.22
2023-04-10T05:43:24.423Z,31.35
2023-04-10T05:45:52.536Z,32.08
2023-04-10T05:48:20.670Z,35.42
2023-04-10T05:50:48.756Z,31.23
2023-04-10T05:53:20.392Z,28.85
2023-04-10T05:55:52.331Z,28.20
2023-04-10T05:58:21.819Z,28.40
2023-04-10T06:00:49.997Z,27.90
2023-04-10T06:03:18.451Z,26.08
2023-04-10T06:05:46.638Z,26.88
2023-04-10T06:08:14.800Z,26.27
2023-04-10T06:10:42.930Z,24.20
2023-04-10T06:13:11.482Z,26.38
2023-04-10T06:15:40.985Z,27.88
2023-04-10T06:18:09.436Z,26.13
2023-04-10T06:20:37.855Z,27.73
2023-04-10T06:23:07.108Z,23.73
2023-04-10T06:25:35.637Z,27.65
2023-04-10T06:28:03.748Z,26.65
2023-04-10T06:30:34.014Z,25.50
2023-04-10T06:33:03.531Z,23.83
2023-04-10T06:35:32.132Z,25.20
2023-04-10T06:38:00.374Z,26.17
2023-04-10T06:40:29.768Z,23.98
2023-04-10T06:42:57.898Z,25.17
2023-04-10T06:45:26.028Z,26.70
2023-04-10T06:47:54.569Z,28.13
2023-04-10T06:50:24.812Z,22.48
2023-04-10T06:52:56.259Z,22.15
2023-04-10T06:55:24.389Z,24.73
2023-04-10T06:57:52.509Z,22.25
2023-04-10T07:00:21.636Z,20.65
2023-04-10T07:02:50.263Z,22.38
2023-04-10T07:05:18.803Z,24.27
2023-04-10T07:07:50.591Z,21.98
2023-04-10T07:10:18.802Z,22.63
2023-04-10T07:12:46.951Z,22.85
2023-04-10T07:15:15.056Z,23.23
2023-04-10T07:17:43.548Z,19.38
2023-04-10T07:20:13.049Z,20.33
2023-04-10T07:22:41.198Z,22.50
2023-04-10T07:25:11.471Z,20.33
2023-04-10T07:27:39.876Z,23.38
2023-04-10T07:30:09.818Z,21.23
2023-04-10T07:32:40.079Z,18.25
2023-04-10T07:35:09.478Z,20.10
2023-04-10T07:37:39.773Z,18.88
2023-04-10T07:40:11.475Z,18.15
2023-04-10T07:42:39.902Z,17.25
2023-04-10T07:45:09.728Z,17.92
2023-04-10T07:47:38.142Z,16.10
2023-04-10T07:50:07.759Z,17.25
2023-04-10T07:52:36.524Z,15.93
2023-04-10T07:55:05.332Z,14.52
2023-04-10T07:57:35.115Z,15.77
2023-04-10T08:00:03.559Z,15.13
2023-04-10T08:02:31.861Z,13.43
2023-04-10T08:05:00.510Z,13.00
2023-04-10T08:07:28.659Z,10.32
2023-04-10T08:09:57.054Z,14.57
2023-04-10T08:12:25.266Z,11.65
2023-04-10T08:14:55.105Z,11.95
2023-04-10T08:17:23.675Z,14.20
2023-04-10T08:19:51.785Z,10.43
2023-04-10T08:22:20.150Z,12.40
2023-04-10T08:24:48.384Z,10.27
2023-04-10T08:27:17.021Z,10.00
2023-04-10T08:29:45.143Z,10.52
2023-04-10T08:32:14.701Z,12.07
2023-04-10T08:34:42.846Z,9.38
2023-04-10T08:37:12.582Z,12.13
2023-04-10T08:39:40.694Z,10.82
2023-04-10T08:42:09.196Z,10.50
2023-04-10T08:44:38.049Z,10.50
2023-04-10T08:47:07.314Z,9.88
2023-04-10T08:49:44.750Z,9.65
2023-04-10T08:52:17.785Z,10.13
2023-04-10T08:54:50.525Z,9.18
2023-04-10T08:57:20.713Z,7.40
2023-04-10T08:59:49.925Z,10.23
2023-04-10T09:02:18.385Z,7.40
2023-04-10T09:04:50.749Z,9.70
2023-04-10T09:07:19.378Z,8.75
2023-04-10T09:09:47.757Z,8.75
2023-04-10T09:12:16.236Z,11.25
2023-04-10T09:14:44.736Z,14.65
2023-04-10T09:17:18.206Z,11.70
2023-04-10T09:19:49.167Z,8.32
2023-04-10T09:22:18.019Z,10.48
2023-04-10T09:24:48.865Z,9.43
2023-04-10T09:27:33.927Z,9.77
2023-04-10T09:30:02.554Z,9.40
2023-04-10T09:32:41.851Z,9.32
2023-04-10T09:35:13.603Z,10.45
2023-04-10T09:37:42.389Z,12.10
2023-04-10T09:40:22.222Z,10.02
2023-04-10T09:42:50.534Z,10.38
2023-04-10T09:45:20.200Z,10.57
2023-04-10T09:48:03.573Z,10.43
2023-04-10T09:50:40.179Z,11.52
2023-04-10T09:53:09.178Z,11.88
2023-04-10T09:55:37.961Z,11.25
2023-04-10T09:58:06.554Z,12.32
2023-04-10T10:00:40.599Z,11.90
2023-04-10T10:03:10.530Z,9.15
2023-04-10T10:05:44.848Z,13.05
2023-04-10T10:08:14.682Z,12.30
2023-04-10T10:10:47.091Z,9.68
2023-04-10T10:13:19.375Z,12.07
2023-04-10T10:15:55.766Z,11.85
2023-04-10T10:18:31.891Z,11.25
2023-04-10T10:21:04.058Z,12.32
2023-04-10T10:23:34.442Z,9.95
2023-04-10T10:26:06.209Z,13.00
2023-04-10T10:28:35.261Z,10.32
2023-04-10T10:31:05.061Z,10.77
2023-04-10T10:33:37.048Z,12.85
2023-04-10T10:36:08.168Z,11.52
2023-04-10T10:38:41.072Z,11.07
2023-04-10T10:41:15.594Z,13.63
2023-04-10T10:43:53.464Z,13.23
2023-04-10T10:46:39.301Z,13.90
2023-04-10T10:49:07.474Z,11.73
2023-04-10T10:51:47.787Z,11.10
2023-04-10T10:54:33.124Z,11.88
2023-04-10T10:57:01.730Z,9.77
2023-04-10T10:59:58.156Z,10.75
2023-04-10T11:02:27.245Z,11.75
2023-04-10T11:04:55.932Z,13.93
2023-04-10T11:08:04.092Z,13.60
2023-04-10T11:11:05.710Z,12.23
2023-04-10T11:13:34.732Z,10.55
2023-04-10T11:16:04.467Z,9.95
2023-04-10T11:19:13.795Z,8.02
2023-04-10T11:22:03.606Z,7.93
2023-04-10T11:24:53.442Z,6.70
2023-04-10T11:27:45.160Z,5.68
2023-04-10T11:30:33.722Z,8.80
2023-04-10T11:33:03.982Z,11.13
2023-04-10T11:35:33.664Z,10.63
2023-04-10T11:38:16.858Z,8.98
2023-04-10T11:41:05.657Z,9.90
2023-04-10T11:43:35.401Z,9.73
2023-04-10T11:46:06.547Z,9.15
2023-04-10T11:48:35.288Z,8.55
2023-04-10T11:51:10.897Z,9.85
2023-04-10T11:53:39.680Z,9.85
2023-04-10T11:56:17.723Z,8.48
2023-04-10T11:58:45.919Z,9.25
2023-04-10T12:01:15.676Z,8.18
2023-04-10T12:03:45.271Z,8.48
2023-04-10T12:06:15.998Z,6.40
2023-04-10T12:08:46.524Z,6.15
2023-04-10T12:11:18.882Z,9.30
2023-04-10T12:13:47.193Z,5.72
2023-04-10T12:16:17.086Z,6.28
2023-04-10T12:18:45.889Z,5.30
2023-04-10T12:21:14.152Z,6.38
2023-04-10T12:23:43.582Z,5.95
2023-04-10T12:26:17.694Z,5.60
2023-04-10T12:28:53.658Z,5.43
2023-04-10T12:31:29.377Z,7.82
2023-04-10T12:33:58.858Z,5.80
2023-04-10T12:36:30.486Z,5.95
2023-04-10T12:38:59.651Z,5.22
2023-04-10T12:41:31.699Z,2.55
2023-04-10T12:44:10.414Z,4.45
2023-04-10T12:46:39.459Z,4.85
2023-04-10T12:49:12.078Z,6.50
2023-04-10T12:51:47.430Z,6.78
2023-04-10T12:54:37.518Z,6.25
2023-04-10T12:57:07.656Z,7.35
2023-04-10T12:59:35.986Z,4.88
2023-04-10T13:02:04.184Z,4.95
2023-04-10T13:04:33.272Z,4.38
2023-04-10T13:07:01.732Z,7.00
2023-04-10T13:09:30.135Z,6.38
2023-04-10T13:11:58.488Z,6.60
2023-04-10T13:14:28.300Z,6.30
2023-04-10T13:16:56.795Z,5.55
2023-04-10T13:19:24.951Z,5.13
2023-04-10T13:21:53.050Z,5.45
2023-04-10T13:24:21.119Z,3.70
2023-04-10T13:26:49.271Z,5.70
2023-04-10T13:29:17.334Z,4.90
2023-04-10T13:31:47.107Z,7.03
2023-04-10T13:34:15.421Z,5.82
2023-04-10T13:36:43.589Z,4.75
2023-04-10T13:39:12.098Z,4.93
2023-04-10T13:41:40.225Z,6.65
2023-04-10T13:44:08.387Z,5.35
2023-04-10T13:46:36.572Z,4.78
2023-04-10T13:49:06.163Z,5.80
2023-04-10T13:51:34.285Z,8.63
2023-04-10T13:54:05.025Z,6.60
2023-04-10T13:56:33.379Z,5.70
2023-04-10T13:59:01.451Z,5.78
2023-04-10T14:01:30.101Z,5.07
2023-04-10T14:03:58.543Z,5.07
2023-04-10T14:06:28.336Z,5.03
2023-04-10T14:08:56.761Z,3.97
2023-04-10T14:11:24.920Z,4.68
2023-04-10T14:13:53.455Z,4.88
2023-04-10T14:16:21.566Z,6.13
2023-04-10T14:18:49.767Z,5.82
2023-04-10T14:21:19.425Z,6.65
2023-04-10T14:23:50.206Z,4.20
2023-04-10T14:26:18.325Z,5.55
2023-04-10T14:28:46.674Z,5.90
2023-04-10T14:31:14.768Z,5.75
2023-04-10T14:33:42.917Z,4.80
2023-04-10T14:36:11.621Z,5.15
2023-04-10T14:38:40.190Z,5.95
2023-04-10T14:41:09.838Z,6.53
2023-04-10T14:43:38.655Z,4.55
2023-04-10T14:46:07.354Z,4.53
2023-04-10T14:48:35.621Z,3.95
2023-04-10T14:51:05.757Z,3.80
2023-04-10T14:53:33.890Z,5.03
2023-04-10T14:56:02.024Z,4.40
2023-04-10T14:58:31.556Z,6.20
2023-04-10T15:00:59.710Z,7.30
2023-04-10T15:03:27.904Z,6.20
2023-04-10T15:06:00.829Z,5.53
2023-04-10T15:08:28.938Z,5.75
2023-04-10T15:10:57.432Z,6.28
2023-04-10T15:13:25.980Z,4.03
2023-04-10T15:15:56.322Z,5.78
2023-04-10T15:18:25.596Z,6.53
2023-04-10T15:20:55.301Z,6.50
2023-04-10T15:23:23.533Z,4.32
2023-04-10T15:25:51.975Z,6.82
2023-04-10T15:28:20.100Z,7.03
2023-04-10T15:30:49.706Z,5.57
2023-04-10T15:33:19.389Z,5.07
2023-04-10T15:35:49.728Z,6.03
2023-04-10T15:38:17.860Z,8.10
2023-04-10T15:40:46.010Z,7.63
2023-04-10T15:43:14.154Z,6.50
2023-04-10T15:45:42.282Z,5.50
2023-04-10T15:48:10.454Z,6.25
2023-04-10T15:50:40.448Z,8.00
2023-04-10T15:53:08.984Z,6.15
2023-04-10T15:55:40.566Z,6.18
2023-04-10T15:58:08.960Z,5.35
2023-04-10T16:00:37.154Z,5.32
2023-04-10T16:03:05.841Z,7.25
2023-04-10T16:05:34.457Z,6.28
2023-04-10T16:08:05.096Z,6.80
2023-04-10T16:10:33.216Z,8.82
2023-04-10T16:13:04.575Z,6.13
2023-04-10T16:15:35.381Z,6.38
2023-04-10T16:18:04.513Z,6.35
2023-04-10T16:20:33.291Z,8.02
2023-04-10T16:23:01.732Z,6.13
2023-04-10T16:25:31.572Z,6.25
2023-04-10T16:27:59.669Z,6.68
2023-04-10T16:30:27.820Z,5.70
2023-04-10T16:32:56.634Z,5.85
2023-04-10T16:35:24.749Z,6.32
2023-04-10T16:37:53.294Z,5.85
2023-04-10T16:40:21.518Z,6.00
2023-04-10T16:42:51.251Z,5.55
2023-04-10T16:45:19.500Z,5.72
2023-04-10T16:47:47.895Z,5.32
2023-04-10T16:50:16.152Z,5.95
2023-04-10T16:52:44.215Z,5.53
2023-04-10T16:55:12.817Z,5.85
2023-04-10T16:57:40.905Z,6.28
2023-04-10T17:00:11.996Z,6.07
2023-04-10T17:02:40.634Z,5.50
2023-04-10T17:05:08.875Z,4.97
2023-04-10T17:07:37.017Z,6.03
2023-04-10T17:10:06.360Z,5.47
2023-04-10T17:12:34.585Z,5.68
2023-04-10T17:15:02.891Z,4.90
2023-04-10T17:17:34.453Z,5.55
2023-04-10T17:20:02.826Z,8.80
2023-04-10T17:22:31.208Z,5.15
2023-04-10T17:24:59.373Z,5.40
2023-04-10T17:27:27.899Z,6.30
2023-04-10T17:29:56.258Z,9.43
2023-04-10T17:32:24.425Z,6.85
2023-04-10T17:34:53.916Z,5.45
2023-04-10T17:37:22.830Z,5.65
2023-04-10T17:39:52.313Z,6.50
2023-04-10T17:42:20.385Z,4.88
2023-04-10T17:44:48.764Z,15.88
2023-04-10T17:47:17.478Z,45.90
2023-04-10T17:49:46.022Z,60.90
2023-04-10T17:52:15.524Z,66.20
2023-04-10T17:54:43.657Z,50.47
2023-04-10T17:57:11.809Z,29.40
2023-04-10T17:59:39.930Z,52.38
2023-04-10T18:02:08.379Z,8.53
2023-04-10T18:04:36.570Z,5.75
2023-04-10T18:07:04.727Z,6.05
2023-04-10T18:09:34.214Z,5.35
2023-04-10T18:12:02.553Z,5.93
2023-04-10T18:14:30.764Z,6.97
2023-04-10T18:16:58.955Z,7.25
2023-04-10T18:19:27.077Z,5.68
2023-04-10T18:21:55.434Z,5.53
2023-04-10T18:24:23.560Z,6.72
2023-04-10T18:26:52.988Z,4.78
2023-04-10T18:29:21.096Z,8.02
2023-04-10T18:31:49.516Z,5.97
2023-04-10T18:34:17.629Z,7.32
2023-04-10T18:36:46.651Z,7.07
2023-04-10T18:39:15.016Z,7.03
2023-04-10T18:41:43.306Z,6.25
2023-04-10T18:44:12.821Z,6.72
2023-04-10T18:46:46.351Z,5.85
2023-04-10T18:49:16.922Z,5.78
2023-04-10T18:51:45.041Z,8.50
2023-04-10T18:54:13.334Z,6.00
2023-04-10T18:56:41.431Z,3.85
2023-04-10T18:59:09.534Z,4.55
2023-04-10T19:01:40.055Z,4.50
2023-04-10T19:04:08.334Z,3.70
2023-04-10T19:06:38.668Z,5.90
2023-04-10T19:09:06.904Z,4.75
2023-04-10T19:11:35.342Z,4.97
2023-04-10T19:14:03.441Z,4.47
2023-04-10T19:19:06.059Z,4.55
2023-04-10T19:21:34.487Z,4.70
2023-04-10T19:24:02.718Z,4.07
2023-04-10T19:26:30.853Z,4.13
2023-04-10T19:28:59.874Z,4.45
2023-04-10T19:31:29.904Z,3.72
2023-04-10T19:33:58.076Z,4.97
2023-04-10T19:36:28.155Z,3.95
2023-04-10T19:38:57.865Z,13.55
2023-04-10T19:41:26.465Z,5.10
2023-04-10T19:43:55.122Z,3.38
2023-04-10T19:46:23.694Z,4.28
2023-04-10T19:48:54.933Z,6.13
2023-04-10T19:51:23.069Z,4.50
2023-04-10T19:53:55.867Z,4.68
2023-04-10T19:56:24.276Z,4.78
2023-04-10T19:58:52.438Z,6.07
2023-04-10T20:01:20.751Z,3.92
2023-04-10T20:03:49.044Z,5.50
2023-04-10T20:06:17.769Z,5.50
2023-04-10T20:08:46.106Z,4.88
2023-04-10T20:11:15.530Z,5.07
2023-04-10T20:13:44.046Z,5.43
2023-04-10T20:16:12.316Z,8.60
2023-04-10T20:18:41.554Z,7.75
2023-04-10T20:21:09.771Z,5.75
2023-04-10T20:23:38.485Z,8.90
2023-04-10T20:26:07.047Z,5.53
2023-04-10T20:28:36.552Z,6.38
2023-04-10T20:31:05.056Z,5.93
2023-04-10T20:33:33.257Z,4.63
2023-04-10T20:36:01.367Z,4.97
2023-04-10T20:38:30.013Z,4.50
2023-04-10T20:40:58.081Z,4.82
2023-04-10T20:43:27.006Z,4.05
2023-04-10T20:45:56.487Z,4.78
2023-04-10T20:48:24.710Z,5.35
2023-04-10T20:50:53.003Z,4.85
2023-04-10T20:53:21.623Z,4.60
2023-04-10T20:55:54.054Z,4.55
2023-04-10T20:58:22.772Z,4.75
2023-04-10T21:00:52.582Z,4.90
2023-04-10T21:03:22.840Z,4.72
2023-04-10T21:05:53.452Z,3.90
2023-04-10T21:08:22.083Z,5.03
2023-04-10T21:10:51.526Z,5.45
2023-04-10T21:13:19.619Z,6.00
2023-04-10T21:15:49.715Z,4.32
2023-04-10T21:18:17.836Z,4.13
2023-04-10T21:20:47.470Z,4.80
2023-04-10T21:23:15.703Z,4.90
2023-04-10T21:25:51.017Z,4.15
2023-04-10T21:28:19.295Z,5.30
2023-04-10T21:30:47.440Z,4.15
2023-04-10T21:33:16.072Z,3.60
2023-04-10T21:35:44.914Z,5.20
2023-04-10T21:38:14.975Z,4.55
2023-04-10T21:40:43.087Z,4.35
2023-04-10T21:43:11.536Z,3.88
2023-04-10T21:45:40.294Z,4.88
2023-04-10T21:48:08.437Z,4.47
2023-04-10T21:50:36.586Z,4.05
2023-04-10T21:53:04.824Z,3.30
2023-04-10T21:55:34.647Z,4.20
2023-04-10T21:58:02.709Z,3.95
2023-04-10T22:00:31.074Z,5.28
2023-04-10T22:02:59.481Z,3.97
2023-04-10T22:05:27.938Z,4.55
2023-04-10T22:07:56.546Z,5.97
2023-04-10T22:10:24.671Z,5.55
2023-04-10T22:12:54.144Z,3.83
2023-04-10T22:15:22.286Z,4.95
2023-04-10T22:17:50.772Z,4.72
2023-04-10T22:20:18.993Z,3.80
2023-04-10T22:22:47.941Z,4.15
2023-04-10T22:25:16.060Z,3.72
2023-04-10T22:27:44.550Z,4.18
2023-04-10T22:30:14.945Z,4.03
2023-04-10T22:32:43.112Z,4.05
2023-04-10T22:35:11.299Z,4.47
2023-04-10T22:37:39.674Z,4.72
2023-04-10T22:40:09.006Z,3.97
2023-04-10T22:42:37.185Z,4.65
2023-04-10T22:45:05.964Z,5.30
2023-04-10T22:47:35.802Z,3.70
2023-04-10T22:50:04.456Z,4.60
2023-04-10T22:52:32.825Z,3.92
2023-04-10T22:55:00.959Z,2.45
2023-04-10T22:57:29.042Z,3.58
2023-04-10T22:59:59.347Z,3.75
2023-04-10T23:02:29.035Z,3.33
2023-04-10T23:04:58.857Z,3.65
2023-04-10T23:07:27.916Z,3.42
2023-04-10T23:09:56.132Z,3.42
2023-04-10T23:12:24.527Z,4.38
2023-04-10T23:14:52.589Z,3.72
2023-04-10T23:17:21.833Z,3.97
2023-04-10T23:19:49.935Z,4.47
2023-04-10T23:22:19.671Z,4.32
2023-04-10T23:24:47.903Z,4.72
2023-04-10T23:27:16.364Z,4.68
2023-04-10T23:29:44.436Z,4.80
2023-04-10T23:32:12.976Z,3.53
2023-04-10T23:34:41.069Z,4.13
2023-04-10T23:37:09.913Z,4.05
2023-04-10T23:39:39.643Z,3.60
2023-04-10T23:42:07.756Z,5.50
2023-04-10T23:44:35.878Z,4.50
2023-04-10T23:47:04.018Z,4.13
2023-04-10T23:49:32.702Z,4.47
2023-04-10T23:52:01.061Z,4.90
2023-04-10T23:54:30.635Z,4.28
2023-04-10T23:57:00.673Z,4.22
2023-04-10T23:59:29.019Z,3.50
